createdAt,value
2023-05-10T00:00:14.327Z,6.13
2023-05-10T00:02:35.259Z,5.50
2023-05-10T00:04:55.587Z,5.47
2023-05-10T00:07:17.661Z,6.75
2023-05-10T00:09:37.646Z,5.37
2023-05-10T00:11:58.764Z,6.70
2023-05-10T00:14:19.161Z,5.88
2023-05-10T00:16:39.625Z,5.65
2023-05-10T00:18:59.733Z,5.30
2023-05-10T00:21:19.688Z,5.68
2023-05-10T00:23:39.903Z,4.32
2023-05-10T00:25:59.994Z,4.60
2023-05-10T00:28:20.226Z,5.25
2023-05-10T00:30:40.252Z,5.20
2023-05-10T00:33:00.763Z,5.10
2023-05-10T00:35:21.871Z,5.35
2023-05-10T00:37:42.042Z,4.22
2023-05-10T00:40:02.317Z,5.25
2023-05-10T00:42:22.845Z,4.82
2023-05-10T00:44:43.061Z,5.78
2023-05-10T00:47:03.343Z,5.30
2023-05-10T00:49:23.187Z,4.03
2023-05-10T00:51:44.839Z,4.90
2023-05-10T00:54:05.678Z,4.35
2023-05-10T00:56:26.588Z,4.55
2023-05-10T00:58:46.935Z,2.97
2023-05-10T01:01:07.264Z,4.40
2023-05-10T01:03:27.537Z,3.90
2023-05-10T01:05:47.916Z,4.07
2023-05-10T01:08:08.984Z,4.05
2023-05-10T01:10:29.692Z,3.50
2023-05-10T01:12:49.800Z,13.20
2023-05-10T01:15:11.174Z,3.08
2023-05-10T01:17:31.846Z,2.78
2023-05-10T01:19:52.375Z,1.90
2023-05-10T01:22:27.871Z,1.83
2023-05-10T01:25:11.567Z,1.90
2023-05-10T01:27:55.313Z,1.90
2023-05-10T01:30:33.564Z,1.77
2023-05-10T01:33:19.309Z,2.15
2023-05-10T01:35:44.497Z,2.80
2023-05-10T01:38:07.917Z,2.45
2023-05-10T01:40:32.027Z,2.20
2023-05-10T01:42:58.716Z,1.90
2023-05-10T01:45:32.487Z,2.30
2023-05-10T01:47:57.795Z,1.70
2023-05-10T01:50:23.651Z,1.88
2023-05-10T01:52:45.837Z,2.30
2023-05-10T01:55:07.646Z,1.77
2023-05-10T01:57:28.861Z,2.00
2023-05-10T01:59:50.366Z,1.60
2023-05-10T02:02:12.171Z,1.50
2023-05-10T02:04:34.518Z,7.20
2023-05-10T02:06:55.179Z,2.00
2023-05-10T02:09:16.075Z,1.63
2023-05-10T02:11:37.766Z,2.70
2023-05-10T02:13:59.231Z,2.22
2023-05-10T02:16:22.734Z,2.75
2023-05-10T02:18:43.473Z,2.90
2023-05-10T02:21:04.120Z,3.08
2023-05-10T02:23:24.843Z,3.67
2023-05-10T02:25:45.964Z,2.85
2023-05-10T02:28:07.449Z,3.28
2023-05-10T02:30:28.771Z,4.05
2023-05-10T02:32:50.131Z,4.07
2023-05-10T02:35:10.915Z,4.68
2023-05-10T02:37:31.464Z,5.20
2023-05-10T02:39:53.162Z,4.32
2023-05-10T02:42:15.906Z,4.22
2023-05-10T02:44:37.244Z,4.97
2023-05-10T02:46:58.804Z,4.65
2023-05-10T02:49:19.385Z,4.85
2023-05-10T02:51:42.642Z,3.58
2023-05-10T02:54:08.091Z,4.38
2023-05-10T02:56:34.087Z,4.53
2023-05-10T02:58:53.935Z,4.93
2023-05-10T03:01:14.167Z,5.70
2023-05-10T03:03:34.404Z,4.40
2023-05-10T03:05:56.079Z,5.85
2023-05-10T03:08:18.686Z,6.40
2023-05-10T03:10:42.477Z,5.65
2023-05-10T03:13:14.233Z,5.78
2023-05-10T03:15:41.533Z,5.22
2023-05-10T03:18:02.355Z,5.18
2023-05-10T03:20:25.771Z,6.78
2023-05-10T03:22:48.194Z,6.43
2023-05-10T03:25:11.888Z,6.13
2023-05-10T03:27:32.621Z,5.82
2023-05-10T03:29:54.021Z,5.95
2023-05-10T03:32:14.124Z,6.03
2023-05-10T03:34:34.257Z,7.07
2023-05-10T03:36:54.379Z,6.10
2023-05-10T03:39:14.530Z,6.63
2023-05-10T03:41:34.549Z,6.80
2023-05-10T03:43:54.618Z,6.88
2023-05-10T03:46:14.981Z,6.68
2023-05-10T03:48:35.204Z,6.97
2023-05-10T03:50:55.654Z,7.05
2023-05-10T03:53:15.824Z,5.93
2023-05-10T03:55:36.688Z,7.30
2023-05-10T03:57:56.726Z,6.93
2023-05-10T04:00:17.331Z,5.90
2023-05-10T04:02:38.518Z,5.97
2023-05-10T04:04:59.037Z,6.18
2023-05-10T04:07:19.578Z,7.03
2023-05-10T04:09:39.609Z,6.28
2023-05-10T04:12:02.580Z,6.80
2023-05-10T04:14:22.599Z,6.88
2023-05-10T04:16:42.670Z,6.22
2023-05-10T04:19:03.258Z,6.80
2023-05-10T04:21:23.455Z,7.18
2023-05-10T04:23:43.705Z,6.50
2023-05-10T04:26:03.776Z,8.20
2023-05-10T04:28:23.968Z,6.65
2023-05-10T04:30:44.161Z,8.10
2023-05-10T04:33:04.527Z,7.28
2023-05-10T04:35:24.819Z,7.55
2023-05-10T04:37:45.150Z,8.00
2023-05-10T04:40:05.610Z,7.53
2023-05-10T04:42:26.372Z,7.00
2023-05-10T04:44:46.484Z,7.10
2023-05-10T04:47:06.691Z,9.25
2023-05-10T04:49:27.079Z,9.15
2023-05-10T04:51:47.359Z,9.32
2023-05-10T04:54:07.716Z,8.80
2023-05-10T04:56:27.873Z,9.20
2023-05-10T04:58:47.890Z,9.27
2023-05-10T05:01:08.760Z,8.80
2023-05-10T05:03:29.022Z,9.35
2023-05-10T05:05:49.265Z,10.55
2023-05-10T05:08:09.366Z,9.82
2023-05-10T05:10:30.288Z,9.40
2023-05-10T05:12:50.739Z,8.70
2023-05-10T05:15:11.303Z,9.77
2023-05-10T05:17:31.841Z,9.48
2023-05-10T05:19:51.953Z,9.23
2023-05-10T05:22:12.285Z,8.35
2023-05-10T05:24:36.753Z,9.85
2023-05-10T05:26:56.984Z,11.05
2023-05-10T05:29:16.833Z,10.88
2023-05-10T05:31:37.173Z,11.07
2023-05-10T05:33:57.556Z,11.05
2023-05-10T05:36:17.961Z,9.18
2023-05-10T05:38:38.012Z,9.32
2023-05-10T05:40:58.246Z,10.38
2023-05-10T05:43:18.646Z,11.57
2023-05-10T05:45:38.823Z,9.70
2023-05-10T05:47:59.770Z,9.90
2023-05-10T05:50:20.351Z,10.07
2023-05-10T05:52:40.506Z,9.43
2023-05-10T05:55:00.748Z,9.52
2023-05-10T05:57:20.828Z,10.35
2023-05-10T05:59:44.087Z,9.35
2023-05-10T06:02:04.152Z,9.90
2023-05-10T06:04:24.327Z,9.93
2023-05-10T06:06:44.900Z,8.45
2023-05-10T06:09:05.078Z,9.23
2023-05-10T06:11:25.724Z,9.55
2023-05-10T06:13:46.396Z,8.30
2023-05-10T06:16:06.523Z,8.93
2023-05-10T06:18:26.649Z,10.55
2023-05-10T06:20:46.648Z,9.55
2023-05-10T06:23:06.894Z,8.57
2023-05-10T06:25:27.090Z,9.05
2023-05-10T06:27:50.971Z,8.40
2023-05-10T06:30:15.130Z,8.82
2023-05-10T06:32:35.183Z,8.23
2023-05-10T06:34:55.399Z,8.07
2023-05-10T06:37:15.702Z,7.70
2023-05-10T06:39:35.900Z,8.32
2023-05-10T06:41:56.145Z,8.95
2023-05-10T06:44:16.161Z,10.07
2023-05-10T06:46:36.756Z,10.05
2023-05-10T06:48:56.981Z,9.80
2023-05-10T06:51:17.907Z,10.57
2023-05-10T06:53:38.040Z,10.73
2023-05-10T06:55:58.191Z,10.63
2023-05-10T06:58:18.454Z,11.27
2023-05-10T07:00:40.737Z,10.45
2023-05-10T07:03:01.191Z,10.05
2023-05-10T07:05:21.867Z,10.15
2023-05-10T07:07:42.611Z,11.00
2023-05-10T07:10:03.225Z,11.10
2023-05-10T07:12:23.611Z,11.48
2023-05-10T07:14:43.908Z,10.77
2023-05-10T07:17:04.162Z,9.52
2023-05-10T07:19:24.352Z,9.25
2023-05-10T07:21:44.508Z,8.15
2023-05-10T07:24:04.816Z,8.45
2023-05-10T07:26:25.569Z,7.45
2023-05-10T07:28:45.636Z,6.38
2023-05-10T07:31:06.044Z,5.45
2023-05-10T07:33:26.412Z,6.00
2023-05-10T07:35:46.449Z,5.72
2023-05-10T07:38:06.855Z,4.30
2023-05-10T07:40:26.735Z,4.13
2023-05-10T07:42:46.814Z,3.38
2023-05-10T07:45:07.234Z,3.67
2023-05-10T07:47:27.133Z,4.10
2023-05-10T07:49:47.253Z,2.83
2023-05-10T07:52:07.369Z,2.90
2023-05-10T07:54:27.308Z,3.28
2023-05-10T07:56:47.476Z,3.08
2023-05-10T07:59:07.496Z,2.92
2023-05-10T08:01:27.976Z,3.08
2023-05-10T08:03:48.602Z,2.90
2023-05-10T08:06:08.636Z,3.20
2023-05-10T08:08:28.739Z,2.90
2023-05-10T08:10:48.936Z,3.63
2023-05-10T08:13:09.022Z,4.20
2023-05-10T08:15:29.465Z,2.92
2023-05-10T08:17:49.820Z,2.63
2023-05-10T08:20:10.357Z,3.70
2023-05-10T08:22:30.629Z,3.88
2023-05-10T08:24:50.608Z,4.43
2023-05-10T08:27:10.736Z,3.65
2023-05-10T08:29:38.677Z,2.80
2023-05-10T08:32:06.782Z,4.03
2023-05-10T08:34:27.182Z,3.05
2023-05-10T08:36:47.675Z,2.40
2023-05-10T08:39:13.535Z,1.95
2023-05-10T08:41:41.006Z,1.90
2023-05-10T08:44:03.873Z,1.75
2023-05-10T08:46:24.563Z,1.65
2023-05-10T08:48:48.907Z,2.08
2023-05-10T08:51:10.570Z,2.13
2023-05-10T08:53:32.137Z,2.10
2023-05-10T08:55:52.407Z,1.45
2023-05-10T08:58:12.611Z,1.50
2023-05-10T09:00:32.492Z,1.38
2023-05-10T09:02:52.971Z,1.20
2023-05-10T09:05:16.213Z,1.33
2023-05-10T09:07:36.686Z,1.20
2023-05-10T09:09:57.458Z,1.48
2023-05-10T09:12:17.566Z,1.20
2023-05-10T09:14:37.777Z,1.30
2023-05-10T09:16:58.180Z,1.30
2023-05-10T09:19:18.337Z,1.40
2023-05-10T09:21:38.878Z,1.30
2023-05-10T09:24:03.652Z,1.38
2023-05-10T09:26:24.715Z,1.23
2023-05-10T09:28:54.867Z,1.45
2023-05-10T09:31:15.221Z,1.90
2023-05-10T09:33:44.959Z,1.55
2023-05-10T09:36:08.892Z,1.40
2023-05-10T09:38:29.509Z,1.50
2023-05-10T09:40:54.812Z,1.40
2023-05-10T09:43:14.834Z,1.50
2023-05-10T09:45:37.764Z,1.38
2023-05-10T09:47:59.427Z,1.85
2023-05-10T09:50:20.744Z,1.50
2023-05-10T09:52:51.898Z,1.60
2023-05-10T09:55:12.496Z,1.65
2023-05-10T09:57:34.613Z,2.00
2023-05-10T09:59:55.294Z,1.40
2023-05-10T10:02:15.356Z,2.42
2023-05-10T10:04:40.227Z,1.55
2023-05-10T10:07:04.700Z,1.80
2023-05-10T10:09:25.489Z,1.45
2023-05-10T10:11:46.138Z,1.30
2023-05-10T10:14:06.708Z,1.48
2023-05-10T10:16:28.381Z,1.25
2023-05-10T10:18:48.861Z,1.30
2023-05-10T10:21:09.103Z,1.63
2023-05-10T10:23:29.846Z,1.48
2023-05-10T10:25:52.190Z,1.77
2023-05-10T10:28:22.120Z,1.90
2023-05-10T10:30:43.886Z,1.60
2023-05-10T10:33:29.550Z,1.90
2023-05-10T10:35:51.052Z,1.80
2023-05-10T10:38:13.324Z,1.67
2023-05-10T10:40:35.002Z,1.63
2023-05-10T10:42:56.199Z,1.42
2023-05-10T10:45:16.742Z,1.23
2023-05-10T10:47:37.767Z,1.40
2023-05-10T10:50:00.825Z,1.65
2023-05-10T10:52:24.255Z,1.52
2023-05-10T10:54:51.656Z,1.17
2023-05-10T10:57:24.011Z,1.20
2023-05-10T10:59:44.848Z,1.20
2023-05-10T11:02:05.219Z,1.20
2023-05-10T11:04:25.725Z,1.30
2023-05-10T11:06:46.461Z,1.42
2023-05-10T11:09:08.279Z,1.52
2023-05-10T11:11:28.221Z,1.65
2023-05-10T11:13:52.247Z,1.60
2023-05-10T11:16:21.922Z,1.70
2023-05-10T11:18:52.782Z,1.77
2023-05-10T11:21:13.583Z,1.80
2023-05-10T11:23:34.483Z,2.00
2023-05-10T11:25:55.166Z,1.40
2023-05-10T11:28:15.306Z,1.75
2023-05-10T11:30:35.833Z,1.33
2023-05-10T11:32:56.016Z,1.20
2023-05-10T11:35:15.889Z,1.50
2023-05-10T11:37:36.166Z,1.83
2023-05-10T11:39:56.457Z,1.80
2023-05-10T11:42:16.441Z,2.15
2023-05-10T11:44:36.669Z,1.30
2023-05-10T11:46:59.242Z,1.20
2023-05-10T11:49:19.372Z,1.63
2023-05-10T11:51:43.921Z,1.33
2023-05-10T11:54:11.169Z,1.42
2023-05-10T11:56:33.304Z,1.45
2023-05-10T11:58:57.751Z,1.60
2023-05-10T12:01:17.900Z,1.50
2023-05-10T12:03:38.829Z,1.60
2023-05-10T12:05:59.653Z,1.42
2023-05-10T12:08:26.847Z,1.35
2023-05-10T12:10:47.144Z,1.33
2023-05-10T12:13:12.542Z,1.25
2023-05-10T12:15:32.570Z,1.33
2023-05-10T12:17:52.896Z,1.40
2023-05-10T12:20:19.641Z,1.27
2023-05-10T12:22:39.898Z,1.48
2023-05-10T12:25:00.232Z,1.30
2023-05-10T12:27:20.952Z,1.20
2023-05-10T12:29:44.750Z,1.40
2023-05-10T12:32:04.928Z,1.13
2023-05-10T12:34:31.033Z,1.30
2023-05-10T12:36:52.715Z,1.40
2023-05-10T12:39:13.008Z,1.27
2023-05-10T12:41:33.096Z,1.35
2023-05-10T12:43:53.400Z,1.30
2023-05-10T12:46:14.633Z,1.25
2023-05-10T12:48:35.082Z,1.70
2023-05-10T12:50:55.538Z,1.40
2023-05-10T12:53:16.160Z,1.17
2023-05-10T12:55:36.404Z,1.20
2023-05-10T12:57:56.762Z,1.20
2023-05-10T13:00:17.411Z,1.27
2023-05-10T13:02:37.780Z,1.17
2023-05-10T13:04:58.066Z,1.35
2023-05-10T13:07:18.366Z,1.50
2023-05-10T13:09:38.540Z,1.20
2023-05-10T13:11:58.987Z,1.70
2023-05-10T13:14:20.594Z,1.40
2023-05-10T13:16:40.839Z,1.50
2023-05-10T13:19:01.210Z,1.20
2023-05-10T13:21:21.222Z,4.80
2023-05-10T13:23:41.570Z,1.00
2023-05-10T13:26:01.780Z,1.75
2023-05-10T13:28:22.069Z,1.08
2023-05-10T13:30:42.401Z,1.10
2023-05-10T13:33:02.755Z,1.00
2023-05-10T13:35:22.797Z,1.30
2023-05-10T13:37:42.937Z,3.35
2023-05-10T13:40:04.338Z,1.50
2023-05-10T13:42:24.598Z,1.20
2023-05-10T13:44:44.893Z,1.50
2023-05-10T13:47:05.037Z,1.08
2023-05-10T13:49:25.042Z,1.20
2023-05-10T13:51:45.396Z,1.20
2023-05-10T13:54:05.347Z,1.20
2023-05-10T13:56:25.786Z,2.03
2023-05-10T13:58:45.965Z,1.60
2023-05-10T14:01:06.087Z,2.63
2023-05-10T14:03:26.116Z,1.60
2023-05-10T14:05:46.331Z,1.33
2023-05-10T14:08:06.223Z,1.40
2023-05-10T14:10:26.389Z,1.38
2023-05-10T14:12:46.395Z,1.30
2023-05-10T14:15:07.021Z,1.30
2023-05-10T14:17:27.291Z,1.20
2023-05-10T14:19:47.479Z,1.90
2023-05-10T14:22:07.681Z,1.40
2023-05-10T14:24:34.442Z,1.90
2023-05-10T14:26:54.818Z,1.40
2023-05-10T14:29:14.924Z,1.50
2023-05-10T14:31:35.475Z,1.48
2023-05-10T14:33:55.758Z,1.75
2023-05-10T14:36:16.105Z,1.33
2023-05-10T14:38:36.109Z,1.38
2023-05-10T14:40:56.217Z,1.10
2023-05-10T14:43:16.439Z,1.20
2023-05-10T14:45:36.860Z,1.50
2023-05-10T14:47:57.739Z,1.20
2023-05-10T14:50:32.263Z,1.40
2023-05-10T14:52:55.866Z,1.40
2023-05-10T14:55:16.398Z,1.25
2023-05-10T14:57:36.694Z,1.20
2023-05-10T14:59:57.279Z,1.00
2023-05-10T15:02:18.197Z,1.40
2023-05-10T15:04:38.932Z,2.13
2023-05-10T15:07:00.413Z,3.15
2023-05-10T15:09:20.771Z,2.78
2023-05-10T15:11:41.277Z,2.42
2023-05-10T15:14:02.330Z,2.08
2023-05-10T15:16:22.700Z,1.50
2023-05-10T15:18:42.838Z,1.20
2023-05-10T15:21:02.867Z,1.75
2023-05-10T15:23:23.171Z,1.20
2023-05-10T15:25:43.086Z,2.63
2023-05-10T15:28:03.215Z,1.00
2023-05-10T15:30:23.366Z,1.20
2023-05-10T15:32:43.698Z,1.05
2023-05-10T15:35:04.292Z,1.30
2023-05-10T15:37:24.741Z,1.10
2023-05-10T15:39:45.226Z,1.40
2023-05-10T15:42:05.046Z,1.10
2023-05-10T15:44:25.194Z,1.10
2023-05-10T15:46:46.090Z,1.30
2023-05-10T15:49:06.870Z,1.20
2023-05-10T15:51:27.174Z,1.13
2023-05-10T15:54:00.750Z,1.30
2023-05-10T15:56:26.885Z,1.27
2023-05-10T15:58:47.074Z,1.05
2023-05-10T16:01:07.340Z,3.53
2023-05-10T16:03:27.732Z,1.38
2023-05-10T16:05:48.139Z,1.90
2023-05-10T16:08:08.198Z,2.05
2023-05-10T16:10:28.634Z,1.20
2023-05-10T16:12:48.883Z,1.10
2023-05-10T16:15:09.483Z,1.30
2023-05-10T16:17:29.569Z,7.88
2023-05-10T16:19:49.681Z,1.50
2023-05-10T16:22:09.918Z,1.00
2023-05-10T16:24:30.339Z,1.10
2023-05-10T16:26:50.822Z,1.10
2023-05-10T16:29:11.147Z,1.10
2023-05-10T16:31:33.198Z,1.17
2023-05-10T16:33:53.446Z,1.25
2023-05-10T16:36:13.607Z,1.13
2023-05-10T16:38:33.835Z,2.47
2023-05-10T16:40:54.726Z,1.77
2023-05-10T16:43:15.142Z,1.13
2023-05-10T16:45:35.557Z,1.77
2023-05-10T16:47:55.751Z,2.08
2023-05-10T16:50:16.186Z,2.20
2023-05-10T16:52:36.594Z,2.35
2023-05-10T16:54:56.964Z,1.13
2023-05-10T16:57:17.258Z,1.27
2023-05-10T16:59:37.584Z,1.20
2023-05-10T17:01:57.805Z,1.27
2023-05-10T17:04:18.110Z,1.63
2023-05-10T17:06:38.296Z,1.63
2023-05-10T17:08:59.935Z,1.50
2023-05-10T17:11:21.179Z,1.10
2023-05-10T17:13:41.574Z,2.10
2023-05-10T17:16:03.014Z,1.10
2023-05-10T17:18:23.736Z,1.00
2023-05-10T17:20:44.529Z,1.00
2023-05-10T17:23:05.088Z,1.20
2023-05-10T17:25:25.198Z,1.48
2023-05-10T17:27:45.540Z,1.25
2023-05-10T17:30:06.059Z,1.02
2023-05-10T17:32:26.029Z,1.10
2023-05-10T17:34:46.788Z,1.10
2023-05-10T17:37:09.103Z,1.20
2023-05-10T17:39:29.374Z,1.63
2023-05-10T17:41:49.860Z,1.70
2023-05-10T17:44:10.038Z,4.40
2023-05-10T17:46:30.165Z,2.45
2023-05-10T17:48:50.469Z,1.23
2023-05-10T17:51:13.526Z,1.25
2023-05-10T17:53:34.635Z,1.00
2023-05-10T17:55:58.164Z,1.23
2023-05-10T17:58:18.306Z,2.38
2023-05-10T18:00:38.750Z,2.80
2023-05-10T18:02:58.829Z,1.67
2023-05-10T18:05:19.170Z,2.38
2023-05-10T18:07:39.864Z,2.10
2023-05-10T18:10:00.389Z,1.20
2023-05-10T18:12:20.243Z,1.40
2023-05-10T18:14:41.400Z,1.98
2023-05-10T18:17:01.750Z,1.40
2023-05-10T18:19:24.344Z,2.33
2023-05-10T18:21:44.445Z,2.15
2023-05-10T18:24:05.436Z,3.17
2023-05-10T18:26:26.014Z,1.40
2023-05-10T18:28:46.257Z,1.20
2023-05-10T18:31:06.836Z,1.20
2023-05-10T18:33:26.965Z,1.10
2023-05-10T18:35:47.016Z,1.00
2023-05-10T18:38:09.132Z,1.67
2023-05-10T18:40:29.627Z,1.20
2023-05-10T18:42:49.906Z,1.08
2023-05-10T18:45:10.091Z,1.52
2023-05-10T18:47:30.484Z,1.20
2023-05-10T18:49:50.765Z,1.00
2023-05-10T18:52:10.988Z,1.13
2023-05-10T18:54:31.255Z,1.30
2023-05-10T18:56:51.623Z,1.80
2023-05-10T18:59:12.580Z,1.00
2023-05-10T19:01:33.001Z,1.13
2023-05-10T19:03:53.191Z,1.10
2023-05-10T19:06:13.864Z,1.13
2023-05-10T19:08:34.528Z,1.10
2023-05-10T19:10:55.767Z,1.50
2023-05-10T19:13:17.848Z,1.10
2023-05-10T19:15:38.064Z,1.00
2023-05-10T19:17:59.065Z,1.00
2023-05-10T19:20:20.074Z,1.00
2023-05-10T19:25:03.906Z,1.00
2023-05-10T19:27:24.747Z,0.90
2023-05-10T19:29:45.608Z,0.90
2023-05-10T19:32:06.273Z,0.98
2023-05-10T19:34:28.211Z,0.90
2023-05-10T19:36:48.833Z,1.10
2023-05-10T19:39:09.617Z,1.00
2023-05-10T19:41:29.691Z,1.95
2023-05-10T19:43:49.979Z,2.70
2023-05-10T19:46:12.835Z,1.23
2023-05-10T19:48:33.764Z,1.10
2023-05-10T19:50:54.699Z,1.00
2023-05-10T19:53:14.778Z,1.10
2023-05-10T19:55:36.448Z,1.30
2023-05-10T19:57:57.545Z,1.40
2023-05-10T20:00:17.623Z,1.10
2023-05-10T20:02:38.137Z,2.17
2023-05-10T20:04:59.579Z,1.20
2023-05-10T20:07:19.813Z,1.10
2023-05-10T20:09:40.528Z,1.45
2023-05-10T20:12:01.723Z,1.73
2023-05-10T20:14:25.058Z,1.25
2023-05-10T20:16:45.622Z,1.50
2023-05-10T20:19:06.924Z,1.48
2023-05-10T20:21:27.747Z,1.20
2023-05-10T20:23:48.159Z,1.15
2023-05-10T20:26:09.102Z,1.20
2023-05-10T20:28:32.209Z,1.35
2023-05-10T20:30:53.339Z,1.20
2023-05-10T20:33:15.925Z,1.20
2023-05-10T20:35:37.506Z,1.23
2023-05-10T20:37:59.270Z,1.20
2023-05-10T20:40:19.849Z,1.40
2023-05-10T20:42:40.512Z,1.50
2023-05-10T20:45:02.697Z,2.28
2023-05-10T20:47:23.087Z,2.30
2023-05-10T20:49:43.313Z,2.08
2023-05-10T20:52:03.848Z,2.00
2023-05-10T20:54:23.922Z,3.50
2023-05-10T20:56:44.496Z,2.15
2023-05-10T20:59:04.832Z,3.13
2023-05-10T21:01:25.688Z,3.95
2023-05-10T21:03:46.002Z,3.40
2023-05-10T21:06:05.980Z,1.90
2023-05-10T21:08:26.156Z,1.67
2023-05-10T21:10:46.262Z,2.22
2023-05-10T21:13:06.349Z,1.90
2023-05-10T21:15:27.159Z,2.03
2023-05-10T21:17:47.148Z,2.08
2023-05-10T21:20:08.124Z,2.08
2023-05-10T21:22:28.422Z,2.22
2023-05-10T21:24:48.521Z,1.60
2023-05-10T21:27:08.599Z,1.48
2023-05-10T21:29:28.794Z,1.88
2023-05-10T21:31:49.053Z,1.75
2023-05-10T21:34:09.379Z,1.45
2023-05-10T21:36:29.636Z,1.60
2023-05-10T21:38:50.105Z,1.10
2023-05-10T21:41:10.636Z,1.25
2023-05-10T21:43:30.961Z,1.30
2023-05-10T21:45:51.222Z,1.20
2023-05-10T21:48:11.545Z,1.23
2023-05-10T21:50:31.876Z,1.40
2023-05-10T21:52:51.848Z,1.30
2023-05-10T21:55:12.029Z,1.10
2023-05-10T21:57:32.746Z,1.20
2023-05-10T21:59:52.939Z,1.40
2023-05-10T22:02:13.168Z,1.80
2023-05-10T22:04:34.165Z,2.03
2023-05-10T22:06:54.418Z,3.17
2023-05-10T22:09:14.377Z,2.35
2023-05-10T22:11:34.583Z,2.53
2023-05-10T22:13:54.661Z,2.13
2023-05-10T22:16:14.956Z,2.28
2023-05-10T22:18:35.045Z,2.90
2023-05-10T22:20:55.220Z,1.67
2023-05-10T22:23:15.758Z,1.60
2023-05-10T22:25:36.307Z,1.50
2023-05-10T22:27:56.458Z,1.90
2023-05-10T22:30:17.293Z,1.83
2023-05-10T22:32:38.003Z,2.20
2023-05-10T22:34:58.110Z,2.08
2023-05-10T22:37:18.460Z,2.38
2023-05-10T22:39:38.721Z,1.75
2023-05-10T22:41:59.095Z,1.40
2023-05-10T22:44:19.223Z,2.65
2023-05-10T22:46:39.316Z,1.90
2023-05-10T22:48:59.553Z,1.80
2023-05-10T22:51:20.476Z,1.50
2023-05-10T22:53:41.403Z,1.85
2023-05-10T22:56:01.665Z,1.88
2023-05-10T22:58:22.028Z,2.17
2023-05-10T23:00:42.466Z,1.80
2023-05-10T23:03:03.118Z,2.70
2023-05-10T23:05:23.553Z,2.65
2023-05-10T23:07:43.858Z,2.63
2023-05-10T23:10:03.960Z,3.17
2023-05-10T23:12:24.497Z,3.47
2023-05-10T23:14:47.357Z,3.92
2023-05-10T23:17:08.015Z,2.95
2023-05-10T23:19:28.343Z,3.40
2023-05-10T23:21:48.988Z,2.60
2023-05-10T23:24:09.398Z,2.13
2023-05-10T23:26:29.586Z,1.77
2023-05-10T23:28:49.896Z,2.00
2023-05-10T23:31:10.409Z,1.80
2023-05-10T23:33:30.330Z,2.22
2023-05-10T23:35:50.399Z,1.98
2023-05-10T23:38:10.523Z,2.50
2023-05-10T23:40:30.831Z,2.33
2023-05-10T23:42:51.001Z,2.10
2023-05-10T23:45:11.619Z,2.70
2023-05-10T23:47:31.947Z,3.90
2023-05-10T23:49:52.091Z,2.90
2023-05-10T23:52:12.307Z,1.50
2023-05-10T23:54:32.603Z,1.95
2023-05-10T23:56:52.704Z,1.52
2023-05-10T23:59:12.600Z,2.20
